createdAt,value
2022-10-15T00:01:28.540Z,20.17
2022-10-15T00:03:55.769Z,22.83
2022-10-15T00:06:22.935Z,19.80
2022-10-15T00:08:50.007Z,20.38
2022-10-15T00:11:26.053Z,26.35
2022-10-15T00:13:54.806Z,21.65
2022-10-15T00:16:24.366Z,22.77
2022-10-15T00:18:52.721Z,21.33
2022-10-15T00:21:21.277Z,25.90
2022-10-15T00:23:49.441Z,27.30
2022-10-15T00:26:23.597Z,20.33
2022-10-15T00:28:52.691Z,22.70
2022-10-15T00:31:30.410Z,18.85
2022-10-15T00:33:59.873Z,20.27
2022-10-15T00:36:30.417Z,20.95
2022-10-15T00:38:57.917Z,20.27
2022-10-15T00:41:30.452Z,30.70
2022-10-15T00:44:02.971Z,20.98
2022-10-15T00:46:42.474Z,21.73
2022-10-15T00:49:21.793Z,24.02
2022-10-15T00:52:14.144Z,22.40
2022-10-15T00:54:49.828Z,31.38
2022-10-15T00:57:17.666Z,29.95
2022-10-15T00:59:50.582Z,31.48
2022-10-15T01:02:19.471Z,32.83
2022-10-15T01:04:48.088Z,21.05
2022-10-15T01:09:42.952Z,34.78
2022-10-15T01:12:23.174Z,23.38
2022-10-15T01:15:10.358Z,28.33
2022-10-15T01:18:04.598Z,30.05
2022-10-15T01:21:01.367Z,31.35
2022-10-15T01:23:56.771Z,29.98
2022-10-15T01:26:52.999Z,28.15
2022-10-15T01:29:40.325Z,31.15
2022-10-15T01:32:23.542Z,31.98
2022-10-15T01:34:58.158Z,30.50
2022-10-15T01:37:37.651Z,25.50
2022-10-15T01:40:12.993Z,33.55
2022-10-15T01:42:47.302Z,31.13
2022-10-15T01:45:22.755Z,29.55
2022-10-15T01:48:13.683Z,30.73
2022-10-15T01:50:46.852Z,30.25
2022-10-15T01:53:26.560Z,27.70
2022-10-15T01:55:58.318Z,32.35
2022-10-15T01:58:27.976Z,34.47
2022-10-15T02:00:58.068Z,28.73
2022-10-15T02:03:30.885Z,30.60
2022-10-15T02:06:06.189Z,34.10
2022-10-15T02:09:18.410Z,32.97
2022-10-15T02:12:01.499Z,33.83
2022-10-15T02:15:12.403Z,37.35
2022-10-15T02:17:55.390Z,31.73
2022-10-15T02:20:47.893Z,34.03
2022-10-15T02:23:22.032Z,39.20
2022-10-15T02:25:52.019Z,35.00
2022-10-15T02:28:20.683Z,27.98
2022-10-15T02:30:51.610Z,33.88
2022-10-15T02:33:19.647Z,35.58
2022-10-15T02:35:50.945Z,38.80
2022-10-15T02:38:25.344Z,29.23
2022-10-15T02:40:53.982Z,33.33
2022-10-15T02:43:24.078Z,32.28
2022-10-15T02:45:51.189Z,32.58
2022-10-15T02:48:20.597Z,30.70
2022-10-15T02:50:48.788Z,42.05
2022-10-15T02:53:15.893Z,36.00
2022-10-15T02:55:43.900Z,31.17
2022-10-15T02:58:11.858Z,23.95
2022-10-15T03:00:39.166Z,25.08
2022-10-15T03:03:06.268Z,22.50
2022-10-15T03:05:34.599Z,23.15
2022-10-15T03:08:01.935Z,28.30
2022-10-15T03:10:30.181Z,26.23
2022-10-15T03:13:05.373Z,29.88
2022-10-15T03:15:37.374Z,27.05
2022-10-15T03:18:05.096Z,27.83
2022-10-15T03:20:32.190Z,27.58
2022-10-15T03:22:59.287Z,30.27
2022-10-15T03:25:26.582Z,34.47
2022-10-15T03:28:00.269Z,30.50
2022-10-15T03:30:35.834Z,32.90
2022-10-15T03:33:03.157Z,35.05
2022-10-15T03:35:30.391Z,34.75
2022-10-15T03:37:57.752Z,34.25
2022-10-15T03:40:24.834Z,38.30
2022-10-15T03:43:00.802Z,36.47
2022-10-15T03:45:30.481Z,46.42
2022-10-15T03:48:21.953Z,43.58
2022-10-15T03:50:49.066Z,41.15
2022-10-15T03:53:16.439Z,49.28
2022-10-15T03:55:43.805Z,41.78
2022-10-15T03:58:10.905Z,41.42
2022-10-15T04:00:46.266Z,43.38
2022-10-15T04:03:14.674Z,43.13
2022-10-15T04:05:41.866Z,50.22
2022-10-15T04:08:11.790Z,44.83
2022-10-15T04:10:41.080Z,47.25
2022-10-15T04:13:08.254Z,55.53
2022-10-15T04:15:39.350Z,52.58
2022-10-15T04:18:09.812Z,47.00
2022-10-15T04:20:40.666Z,49.40
2022-10-15T04:23:11.985Z,55.13
2022-10-15T04:25:42.762Z,54.60
2022-10-15T04:28:10.302Z,47.72
2022-10-15T04:30:39.035Z,50.33
2022-10-15T04:33:09.746Z,50.95
2022-10-15T04:35:36.859Z,50.85
2022-10-15T04:38:08.039Z,56.65
2022-10-15T04:41:00.808Z,54.53
2022-10-15T04:43:38.948Z,55.15
2022-10-15T04:46:09.457Z,60.78
2022-10-15T04:48:42.929Z,60.00
2022-10-15T04:51:18.339Z,61.05
2022-10-15T04:54:05.642Z,54.50
2022-10-15T04:56:33.073Z,59.67
2022-10-15T04:59:00.599Z,56.65
2022-10-15T05:01:31.278Z,59.08
2022-10-15T05:04:11.869Z,60.65
2022-10-15T05:06:40.374Z,64.93
2022-10-15T05:09:20.201Z,63.35
2022-10-15T05:11:56.575Z,60.40
2022-10-15T05:14:23.758Z,60.15
2022-10-15T05:17:04.935Z,65.82
2022-10-15T05:19:38.059Z,58.38
2022-10-15T05:22:09.241Z,52.63
2022-10-15T05:24:42.598Z,53.17
2022-10-15T05:27:24.682Z,52.80
2022-10-15T05:29:54.167Z,48.00
2022-10-15T05:34:51.528Z,54.65
2022-10-15T05:37:18.667Z,51.50
2022-10-15T05:39:45.745Z,56.10
2022-10-15T05:42:15.581Z,53.97
2022-10-15T05:44:50.194Z,60.58
2022-10-15T05:47:17.240Z,55.65
2022-10-15T05:49:47.495Z,52.50
2022-10-15T05:52:28.040Z,58.53
2022-10-15T05:55:22.520Z,54.30
2022-10-15T05:57:49.600Z,51.72
2022-10-15T06:00:17.334Z,58.97
2022-10-15T06:05:21.252Z,60.22
2022-10-15T06:07:48.440Z,74.10
2022-10-15T06:10:15.655Z,61.22
2022-10-15T06:12:42.843Z,59.38
2022-10-15T06:15:10.407Z,58.10
2022-10-15T06:17:37.528Z,55.67
2022-10-15T06:20:06.158Z,67.10
2022-10-15T06:22:33.279Z,57.50
2022-10-15T06:25:00.387Z,60.95
2022-10-15T06:27:28.470Z,61.30
2022-10-15T06:29:57.569Z,69.90
2022-10-15T06:32:24.912Z,57.65
2022-10-15T06:34:55.094Z,59.92
2022-10-15T06:37:22.560Z,67.03
2022-10-15T06:39:51.233Z,56.55
2022-10-15T06:42:18.330Z,60.65
2022-10-15T06:44:48.052Z,62.00
2022-10-15T06:47:17.321Z,56.72
2022-10-15T06:49:47.762Z,62.97
2022-10-15T06:52:14.929Z,70.90
2022-10-15T06:54:42.038Z,63.55
2022-10-15T06:57:11.068Z,61.45
2022-10-15T06:59:41.295Z,58.70
2022-10-15T07:02:14.130Z,58.38
2022-10-15T07:04:41.214Z,58.83
2022-10-15T07:07:08.468Z,60.42
2022-10-15T07:09:36.706Z,61.10
2022-10-15T07:12:04.243Z,59.38
2022-10-15T07:14:31.325Z,65.93
2022-10-15T07:16:59.418Z,56.03
2022-10-15T07:19:28.435Z,69.53
2022-10-15T07:21:55.573Z,61.47
2022-10-15T07:24:22.748Z,60.95
2022-10-15T07:26:49.997Z,59.70
2022-10-15T07:29:17.106Z,64.50
2022-10-15T07:31:46.905Z,67.38
2022-10-15T07:34:17.131Z,64.32
2022-10-15T07:36:44.281Z,60.75
2022-10-15T07:39:11.484Z,67.57
2022-10-15T07:41:38.647Z,69.38
2022-10-15T07:44:06.338Z,64.45
2022-10-15T07:46:33.436Z,58.75
2022-10-15T07:49:00.692Z,63.67
2022-10-15T07:51:27.803Z,60.50
2022-10-15T07:53:57.363Z,67.95
2022-10-15T07:56:25.529Z,61.47
2022-10-15T07:58:52.737Z,59.13
2022-10-15T08:01:21.394Z,57.60
2022-10-15T08:03:48.611Z,61.17
2022-10-15T08:06:15.895Z,59.05
2022-10-15T08:08:45.393Z,63.72
2022-10-15T08:11:15.280Z,47.78
2022-10-15T08:13:44.435Z,54.10
2022-10-15T08:16:14.057Z,60.80
2022-10-15T08:18:42.928Z,53.80
2022-10-15T08:21:11.399Z,58.03
2022-10-15T08:23:39.105Z,57.33
2022-10-15T08:26:06.374Z,52.60
2022-10-15T08:28:35.146Z,56.80
2022-10-15T08:31:05.633Z,54.33
2022-10-15T08:33:35.531Z,51.88
2022-10-15T08:36:11.609Z,53.78
2022-10-15T08:38:38.938Z,53.92
2022-10-15T08:41:53.520Z,54.67
2022-10-15T08:44:26.065Z,55.90
2022-10-15T08:47:12.527Z,50.15
2022-10-15T08:49:50.831Z,49.33
2022-10-15T08:52:30.181Z,49.40
2022-10-15T08:55:01.404Z,47.28
2022-10-15T08:57:50.671Z,44.95
2022-10-15T09:00:24.151Z,48.58
2022-10-15T09:03:03.750Z,45.67
2022-10-15T09:05:40.165Z,46.03
2022-10-15T09:08:31.104Z,48.65
2022-10-15T09:11:09.393Z,45.38
2022-10-15T09:13:43.323Z,44.97
2022-10-15T09:16:20.183Z,43.50
2022-10-15T09:18:49.882Z,46.88
2022-10-15T09:21:17.480Z,48.03
2022-10-15T09:23:46.040Z,48.22
2022-10-15T09:26:13.213Z,48.92
2022-10-15T09:28:51.758Z,50.15
2022-10-15T09:31:30.455Z,46.97
2022-10-15T09:34:05.403Z,45.50
2022-10-15T09:36:51.720Z,42.53
2022-10-15T09:39:18.790Z,47.35
2022-10-15T09:41:53.711Z,41.75
2022-10-15T09:44:24.599Z,37.78
2022-10-15T09:46:52.174Z,35.90
2022-10-15T09:49:31.276Z,39.75
2022-10-15T09:52:26.623Z,36.45
2022-10-15T09:55:03.154Z,34.90
2022-10-15T09:57:33.229Z,40.75
2022-10-15T10:00:02.397Z,33.55
2022-10-15T10:02:39.507Z,40.33
2022-10-15T10:05:30.020Z,32.80
2022-10-15T10:08:19.600Z,33.25
2022-10-15T10:10:57.961Z,36.30
2022-10-15T10:13:30.292Z,34.80
2022-10-15T10:16:04.992Z,30.60
2022-10-15T10:18:32.746Z,32.33
2022-10-15T10:21:05.935Z,37.15
2022-10-15T10:23:35.084Z,33.97
2022-10-15T10:26:05.725Z,31.83
2022-10-15T10:28:53.733Z,39.30
2022-10-15T10:31:33.577Z,33.40
2022-10-15T10:34:04.012Z,32.58
2022-10-15T10:36:39.460Z,34.00
2022-10-15T10:39:14.096Z,28.23
2022-10-15T10:42:09.302Z,29.92
2022-10-15T10:44:46.470Z,30.10
2022-10-15T10:47:18.079Z,26.15
2022-10-15T10:49:58.272Z,25.42
2022-10-15T10:52:40.980Z,23.33
2022-10-15T10:55:18.306Z,27.00
2022-10-15T10:57:57.103Z,24.55
2022-10-15T11:00:42.524Z,25.15
2022-10-15T11:03:36.017Z,28.67
2022-10-15T11:06:12.173Z,23.00
2022-10-15T11:08:58.268Z,18.83
2022-10-15T11:11:33.268Z,22.42
2022-10-15T11:14:20.282Z,20.65
2022-10-15T11:16:56.491Z,20.98
2022-10-15T11:22:36.759Z,22.10
2022-10-15T11:25:29.278Z,25.88
2022-10-15T11:28:38.420Z,20.98
2022-10-15T11:34:22.251Z,18.63
2022-10-15T11:37:40.589Z,17.40
2022-10-15T11:40:20.762Z,19.00
2022-10-15T11:43:14.195Z,15.20
2022-10-15T11:46:00.503Z,15.63
2022-10-15T11:48:36.366Z,15.05
2022-10-15T11:51:27.643Z,15.60
2022-10-15T11:54:11.475Z,13.23
2022-10-15T11:56:47.070Z,12.75
2022-10-15T11:59:17.444Z,13.00
2022-10-15T12:01:53.968Z,14.88
2022-10-15T12:04:42.249Z,11.85
2022-10-15T12:07:16.627Z,13.52
2022-10-15T12:09:48.947Z,13.90
2022-10-15T12:12:28.412Z,11.80
2022-10-15T12:15:07.467Z,18.75
2022-10-15T12:17:41.813Z,11.50
2022-10-15T12:20:13.961Z,13.25
2022-10-15T12:22:55.366Z,10.10
2022-10-15T12:25:34.461Z,13.02
2022-10-15T12:28:15.104Z,10.60
2022-10-15T12:30:53.083Z,11.52
2022-10-15T12:33:29.432Z,11.88
2022-10-15T12:36:09.433Z,11.85
2022-10-15T12:38:40.651Z,12.80
2022-10-15T12:41:20.850Z,12.50
2022-10-15T12:44:08.805Z,10.23
2022-10-15T12:46:39.516Z,12.27
2022-10-15T12:49:32.341Z,10.20
2022-10-15T12:52:01.325Z,10.93
2022-10-15T12:54:42.472Z,11.18
2022-10-15T12:57:31.225Z,10.07
2022-10-15T13:00:04.246Z,12.05
2022-10-15T13:02:37.727Z,11.82
2022-10-15T13:05:07.385Z,14.27
2022-10-15T13:07:40.682Z,11.07
2022-10-15T13:10:20.888Z,12.00
2022-10-15T13:12:55.193Z,9.93
2022-10-15T13:15:26.184Z,11.43
2022-10-15T13:17:57.765Z,11.30
2022-10-15T13:20:38.370Z,9.05
2022-10-15T13:23:29.721Z,11.85
2022-10-15T13:28:48.319Z,9.95
2022-10-15T13:31:30.458Z,9.38
2022-10-15T13:34:14.120Z,10.48
2022-10-15T13:36:41.516Z,10.55
2022-10-15T13:39:24.022Z,9.55
2022-10-15T13:41:51.559Z,8.43
2022-10-15T13:44:23.310Z,9.07
2022-10-15T13:46:51.377Z,9.02
2022-10-15T13:49:19.084Z,9.68
2022-10-15T13:51:49.347Z,10.52
2022-10-15T13:54:31.010Z,10.00
2022-10-15T13:57:01.751Z,10.60
2022-10-15T13:59:31.461Z,10.25
2022-10-15T14:02:05.243Z,11.48
2022-10-15T14:04:35.177Z,13.02
2022-10-15T14:07:27.703Z,12.70
2022-10-15T14:09:55.393Z,14.10
2022-10-15T14:12:23.576Z,17.92
2022-10-15T14:14:50.656Z,15.52
2022-10-15T14:17:17.777Z,15.95
2022-10-15T14:20:14.395Z,15.65
2022-10-15T14:22:39.840Z,15.98
2022-10-15T14:27:38.155Z,16.88
2022-10-15T14:30:14.294Z,20.15
2022-10-15T14:32:46.814Z,22.95
2022-10-15T14:35:35.520Z,18.30
2022-10-15T14:38:10.316Z,19.08
2022-10-15T14:40:37.443Z,18.00
2022-10-15T14:43:05.946Z,16.65
2022-10-15T14:45:56.096Z,19.48
2022-10-15T14:48:54.783Z,17.20
2022-10-15T14:51:25.883Z,17.67
2022-10-15T14:53:53.596Z,19.30
2022-10-15T14:56:26.831Z,16.88
2022-10-15T14:58:58.110Z,15.50
2022-10-15T15:01:30.358Z,22.60
2022-10-15T15:03:57.465Z,17.33
2022-10-15T15:06:24.657Z,19.08
2022-10-15T15:08:51.723Z,20.45
2022-10-15T15:11:23.185Z,18.35
2022-10-15T15:13:51.592Z,19.88
2022-10-15T15:16:19.104Z,20.95
2022-10-15T15:18:46.511Z,20.00
2022-10-15T15:21:17.556Z,19.67
2022-10-15T15:23:44.849Z,19.05
2022-10-15T15:26:12.034Z,17.35
2022-10-15T15:28:39.166Z,22.05
2022-10-15T15:31:08.266Z,18.20
2022-10-15T15:33:35.447Z,18.02
2022-10-15T15:36:20.809Z,19.33
2022-10-15T15:38:50.634Z,19.85
2022-10-15T15:41:22.713Z,19.42
2022-10-15T15:43:50.522Z,21.05
2022-10-15T15:46:17.968Z,17.48
2022-10-15T15:48:45.139Z,17.67
2022-10-15T15:51:27.613Z,18.17
2022-10-15T15:53:55.361Z,16.75
2022-10-15T15:56:22.768Z,15.52
2022-10-15T15:58:52.340Z,17.10
2022-10-15T16:01:20.839Z,17.88
2022-10-15T16:03:48.012Z,16.50
2022-10-15T16:06:15.428Z,16.08
2022-10-15T16:08:42.574Z,15.57
2022-10-15T16:11:10.309Z,15.93
2022-10-15T16:13:38.235Z,19.55
2022-10-15T16:16:05.755Z,15.63
2022-10-15T16:18:35.357Z,16.30
2022-10-15T16:21:02.558Z,14.77
2022-10-15T16:23:29.818Z,15.20
2022-10-15T16:25:59.749Z,15.30
2022-10-15T16:28:26.820Z,14.23
2022-10-15T16:30:53.963Z,14.38
2022-10-15T16:33:21.444Z,15.40
2022-10-15T16:35:55.963Z,14.68
2022-10-15T16:38:25.756Z,13.85
2022-10-15T16:40:52.955Z,16.55
2022-10-15T16:43:22.387Z,15.40
2022-10-15T16:45:56.313Z,16.02
2022-10-15T16:51:20.582Z,16.58
2022-10-15T16:53:48.940Z,18.02
2022-10-15T16:56:30.276Z,14.32
2022-10-15T16:58:57.888Z,14.32
2022-10-15T17:01:29.199Z,17.13
2022-10-15T17:03:58.370Z,14.95
2022-10-15T17:06:28.259Z,15.93
2022-10-15T17:08:57.585Z,15.52
2022-10-15T17:11:30.730Z,14.73
2022-10-15T17:14:00.693Z,15.13
2022-10-15T17:16:30.877Z,15.15
2022-10-15T17:18:58.959Z,16.55
2022-10-15T17:21:27.982Z,13.68
2022-10-15T17:23:58.267Z,13.43
2022-10-15T17:26:29.169Z,12.70
2022-10-15T17:28:56.253Z,13.63
2022-10-15T17:31:24.907Z,11.57
2022-10-15T17:34:01.521Z,13.30
2022-10-15T17:36:36.911Z,13.00
2022-10-15T17:39:04.554Z,14.98
2022-10-15T17:41:31.743Z,14.15
2022-10-15T17:43:58.844Z,11.30
2022-10-15T17:46:28.208Z,11.70
2022-10-15T17:48:55.641Z,14.57
2022-10-15T17:51:25.854Z,12.30
2022-10-15T17:53:57.874Z,10.57
2022-10-15T17:56:28.025Z,11.38
2022-10-15T17:59:00.417Z,10.48
2022-10-15T18:01:39.482Z,9.23
2022-10-15T18:04:13.289Z,10.30
2022-10-15T18:06:44.687Z,9.75
2022-10-15T18:09:23.888Z,10.70
2022-10-15T18:11:55.433Z,8.52
2022-10-15T18:14:29.164Z,10.32
2022-10-15T18:16:56.891Z,12.52
2022-10-15T18:19:25.771Z,12.65
2022-10-15T18:21:53.114Z,13.85
2022-10-15T18:24:21.990Z,14.10
2022-10-15T18:26:50.628Z,8.30
2022-10-15T18:29:18.292Z,55.08
2022-10-15T18:31:46.997Z,22.50
2022-10-15T18:34:14.527Z,16.38
2022-10-15T18:36:43.432Z,14.88
2022-10-15T18:39:11.262Z,7.25
2022-10-15T18:41:40.228Z,6.22
2022-10-15T18:44:15.391Z,6.60
2022-10-15T18:46:49.846Z,10.40
2022-10-15T18:49:18.747Z,6.10
2022-10-15T18:51:46.497Z,4.75
2022-10-15T18:54:13.781Z,7.85
2022-10-15T18:56:41.027Z,8.02
2022-10-15T18:59:08.087Z,5.68
2022-10-15T19:01:41.657Z,7.30
2022-10-15T19:04:12.208Z,6.47
2022-10-15T19:06:41.877Z,7.05
2022-10-15T19:09:11.511Z,5.20
2022-10-15T19:11:45.041Z,6.30
2022-10-15T19:14:18.209Z,9.48
2022-10-15T19:16:47.010Z,5.73
2022-10-15T19:19:16.689Z,4.93
2022-10-15T19:21:44.695Z,4.72
2022-10-15T19:24:12.745Z,7.57
2022-10-15T19:26:40.120Z,4.93
2022-10-15T19:29:09.818Z,6.43
2022-10-15T19:31:39.811Z,4.85
2022-10-15T19:34:07.853Z,6.03
2022-10-15T19:36:38.248Z,6.45
2022-10-15T19:39:08.669Z,6.15
2022-10-15T19:41:38.070Z,5.25
2022-10-15T19:44:08.086Z,5.30
2022-10-15T19:46:36.206Z,5.85
2022-10-15T19:49:05.060Z,5.18
2022-10-15T19:51:35.255Z,5.30
2022-10-15T19:54:03.260Z,7.28
2022-10-15T19:56:39.689Z,5.25
2022-10-15T19:59:07.127Z,6.35
2022-10-15T20:01:34.413Z,6.93
2022-10-15T20:04:06.462Z,5.90
2022-10-15T20:06:36.672Z,6.72
2022-10-15T20:09:05.249Z,7.03
2022-10-15T20:11:32.464Z,7.38
2022-10-15T20:14:00.559Z,6.50
2022-10-15T20:16:32.512Z,8.30
2022-10-15T20:19:08.153Z,9.50
2022-10-15T20:22:05.564Z,8.57
2022-10-15T20:24:33.035Z,7.93
2022-10-15T20:27:00.698Z,8.23
2022-10-15T20:29:27.837Z,7.53
2022-10-15T20:32:02.031Z,8.52
2022-10-15T20:34:41.465Z,8.07
2022-10-15T20:37:08.548Z,9.18
2022-10-15T20:39:35.737Z,7.20
2022-10-15T20:42:07.465Z,8.85
2022-10-15T20:44:37.071Z,8.23
2022-10-15T20:47:11.918Z,10.15
2022-10-15T20:49:49.717Z,7.18
2022-10-15T20:52:21.069Z,8.10
2022-10-15T20:54:50.599Z,7.32
2022-10-15T20:57:24.997Z,7.22
2022-10-15T20:59:52.155Z,7.07
2022-10-15T21:02:19.262Z,6.22
2022-10-15T21:04:48.262Z,6.95
2022-10-15T21:07:15.414Z,8.93
2022-10-15T21:09:42.505Z,5.85
2022-10-15T21:12:10.324Z,7.22
2022-10-15T21:14:37.884Z,9.43
2022-10-15T21:17:07.696Z,5.68
2022-10-15T21:19:34.796Z,6.95
2022-10-15T21:22:01.986Z,6.18
2022-10-15T21:24:30.082Z,12.52
2022-10-15T21:26:57.287Z,7.15
2022-10-15T21:29:27.983Z,8.07
2022-10-15T21:31:55.131Z,6.35
2022-10-15T21:34:27.310Z,8.05
2022-10-15T21:36:55.290Z,8.80
2022-10-15T21:39:22.737Z,7.15
2022-10-15T21:41:49.787Z,7.70
2022-10-15T21:44:17.788Z,8.63
2022-10-15T21:46:45.058Z,8.77
2022-10-15T21:49:13.864Z,7.15
2022-10-15T21:51:41.139Z,8.25
2022-10-15T21:54:09.293Z,7.30
2022-10-15T21:56:37.265Z,4.38
2022-10-15T21:59:04.770Z,7.63
2022-10-15T22:01:34.870Z,7.20
2022-10-15T22:04:08.785Z,7.72
2022-10-15T22:06:40.001Z,9.05
2022-10-15T22:09:12.184Z,4.20
2022-10-15T22:11:42.436Z,4.22
2022-10-15T22:14:14.029Z,6.95
2022-10-15T22:16:42.014Z,8.00
2022-10-15T22:19:13.426Z,9.45
2022-10-15T22:21:40.677Z,7.45
2022-10-15T22:24:16.376Z,4.45
2022-10-15T22:26:46.750Z,8.32
2022-10-15T22:29:34.339Z,4.88
2022-10-15T22:32:02.588Z,6.70
2022-10-15T22:34:30.197Z,9.05
2022-10-15T22:36:57.327Z,6.28
2022-10-15T22:39:24.428Z,4.93
2022-10-15T22:41:51.570Z,7.65
2022-10-15T22:44:20.643Z,6.50
2022-10-15T22:46:49.662Z,6.50
2022-10-15T22:49:19.774Z,8.93
2022-10-15T22:51:47.527Z,6.25
2022-10-15T22:54:16.983Z,8.95
2022-10-15T22:56:45.291Z,7.57
2022-10-15T22:59:12.535Z,7.97
2022-10-15T23:01:39.677Z,7.65
2022-10-15T23:04:08.347Z,10.40
2022-10-15T23:06:36.632Z,8.00
2022-10-15T23:09:05.727Z,8.18
2022-10-15T23:11:44.263Z,8.70
2022-10-15T23:14:12.268Z,8.93
2022-10-15T23:16:42.237Z,9.32
2022-10-15T23:19:16.630Z,8.90
2022-10-15T23:21:47.137Z,9.23
2022-10-15T23:24:23.204Z,12.35
2022-10-15T23:26:51.051Z,7.80
2022-10-15T23:29:20.754Z,8.93
2022-10-15T23:31:49.131Z,10.43
2022-10-15T23:34:18.874Z,9.82
2022-10-15T23:36:46.002Z,8.30
2022-10-15T23:39:25.871Z,9.00
2022-10-15T23:41:57.177Z,9.82
2022-10-15T23:44:28.403Z,8.38
2022-10-15T23:46:55.526Z,8.25
2022-10-15T23:49:22.629Z,9.82
2022-10-15T23:51:52.312Z,14.05
2022-10-15T23:54:19.597Z,9.30
2022-10-15T23:56:47.288Z,9.60
2022-10-15T23:59:16.596Z,13.25
